sensor_id;sensor_type;location;lat;lon;timestamp;P1;durP1;ratioP1;P2;durP2;ratioP2
74872;SDS011;68776;44.762;37.698;2023-07-20T00:00:24;614.17;;;169.38;;
74872;SDS011;68776;44.762;37.698;2023-07-20T00:01:26;826.70;;;229.63;;
74872;SDS011;68776;44.762;37.698;2023-07-20T00:02:27;671.13;;;187.37;;
74872;SDS011;68776;44.762;37.698;2023-07-20T00:03:28;532.78;;;148.95;;
74872;SDS011;68776;44.762;37.698;2023-07-20T00:04:29;477.33;;;135.23;;
74872;SDS011;68776;44.762;37.698;2023-07-20T00:05:30;477.65;;;133.95;;
74872;SDS011;68776;44.762;37.698;2023-07-20T00:06:31;489.95;;;138.95;;
74872;SDS011;68776;44.762;37.698;2023-07-20T00:07:31;539.42;;;151.70;;
74872;SDS011;68776;44.762;37.698;2023-07-20T00:08:32;513.27;;;145.40;;
74872;SDS011;68776;44.762;37.698;2023-07-20T00:09:33;520.67;;;147.15;;
74872;SDS011;68776;44.762;37.698;2023-07-20T00:10:34;508.50;;;144.90;;
74872;SDS011;68776;44.762;37.698;2023-07-20T00:11:36;486.95;;;137.35;;
74872;SDS011;68776;44.762;37.698;2023-07-20T00:12:38;475.08;;;134.32;;
74872;SDS011;68776;44.762;37.698;2023-07-20T00:13:39;472.20;;;133.63;;
74872;SDS011;68776;44.762;37.698;2023-07-20T00:14:41;454.90;;;128.95;;
74872;SDS011;68776;44.762;37.698;2023-07-20T00:15:42;458.45;;;130.95;;
74872;SDS011;68776;44.762;37.698;2023-07-20T00:16:43;461.08;;;130.82;;
74872;SDS011;68776;44.762;37.698;2023-07-20T00:17:46;465.60;;;131.93;;
74872;SDS011;68776;44.762;37.698;2023-07-20T00:18:47;462.27;;;130.50;;
74872;SDS011;68776;44.762;37.698;2023-07-20T00:19:48;460.05;;;131.27;;
74872;SDS011;68776;44.762;37.698;2023-07-20T00:20:49;462.35;;;130.30;;
74872;SDS011;68776;44.762;37.698;2023-07-20T00:21:51;469.58;;;132.35;;
74872;SDS011;68776;44.762;37.698;2023-07-20T00:22:53;480.85;;;135.27;;
74872;SDS011;68776;44.762;37.698;2023-07-20T00:23:55;495.90;;;140.95;;
74872;SDS011;68776;44.762;37.698;2023-07-20T00:24:56;472.27;;;134.00;;
74872;SDS011;68776;44.762;37.698;2023-07-20T00:25:57;454.38;;;129.55;;
74872;SDS011;68776;44.762;37.698;2023-07-20T00:26:58;464.38;;;132.45;;
74872;SDS011;68776;44.762;37.698;2023-07-20T00:27:59;477.90;;;136.38;;
74872;SDS011;68776;44.762;37.698;2023-07-20T00:29:00;471.42;;;133.35;;
74872;SDS011;68776;44.762;37.698;2023-07-20T00:30:01;463.88;;;131.30;;
74872;SDS011;68776;44.762;37.698;2023-07-20T00:31:02;469.92;;;133.00;;
74872;SDS011;68776;44.762;37.698;2023-07-20T00:32:03;463.65;;;131.80;;
74872;SDS011;68776;44.762;37.698;2023-07-20T00:33:10;480.25;;;137.05;;
74872;SDS011;68776;44.762;37.698;2023-07-20T00:34:12;478.83;;;135.50;;
74872;SDS011;68776;44.762;37.698;2023-07-20T00:35:14;481.97;;;136.50;;
74872;SDS011;68776;44.762;37.698;2023-07-20T00:36:15;456.40;;;130.02;;
74872;SDS011;68776;44.762;37.698;2023-07-20T00:37:16;437.10;;;127.07;;
74872;SDS011;68776;44.762;37.698;2023-07-20T00:38:17;415.40;;;121.60;;
74872;SDS011;68776;44.762;37.698;2023-07-20T00:39:18;399.05;;;116.65;;
74872;SDS011;68776;44.762;37.698;2023-07-20T00:43:22;464.92;;;130.00;;
74872;SDS011;68776;44.762;37.698;2023-07-20T00:44:24;438.73;;;124.40;;
74872;SDS011;68776;44.762;37.698;2023-07-20T00:45:24;407.52;;;119.13;;
74872;SDS011;68776;44.762;37.698;2023-07-20T00:46:26;392.17;;;115.50;;
74872;SDS011;68776;44.762;37.698;2023-07-20T00:47:28;374.02;;;112.93;;
74872;SDS011;68776;44.762;37.698;2023-07-20T00:48:29;376.90;;;113.17;;
74872;SDS011;68776;44.762;37.698;2023-07-20T00:49:31;374.35;;;113.38;;
74872;SDS011;68776;44.762;37.698;2023-07-20T00:50:32;370.30;;;113.28;;
74872;SDS011;68776;44.762;37.698;2023-07-20T00:51:36;374.85;;;113.55;;
74872;SDS011;68776;44.762;37.698;2023-07-20T00:52:37;374.13;;;111.43;;
74872;SDS011;68776;44.762;37.698;2023-07-20T00:53:41;374.17;;;111.90;;
74872;SDS011;68776;44.762;37.698;2023-07-20T00:54:42;361.15;;;110.35;;
74872;SDS011;68776;44.762;37.698;2023-07-20T00:55:44;359.85;;;110.20;;
74872;SDS011;68776;44.762;37.698;2023-07-20T00:56:46;351.52;;;109.20;;
74872;SDS011;68776;44.762;37.698;2023-07-20T00:57:47;330.92;;;104.68;;
74872;SDS011;68776;44.762;37.698;2023-07-20T00:58:48;351.13;;;109.70;;
74872;SDS011;68776;44.762;37.698;2023-07-20T00:59:49;350.67;;;108.35;;
74872;SDS011;68776;44.762;37.698;2023-07-20T01:00:51;356.88;;;111.22;;
74872;SDS011;68776;44.762;37.698;2023-07-20T01:01:53;353.42;;;109.40;;
74872;SDS011;68776;44.762;37.698;2023-07-20T01:02:54;351.70;;;106.75;;
74872;SDS011;68776;44.762;37.698;2023-07-20T01:03:55;359.48;;;109.95;;
74872;SDS011;68776;44.762;37.698;2023-07-20T01:04:56;367.25;;;111.38;;
74872;SDS011;68776;44.762;37.698;2023-07-20T01:07:12;361.92;;;110.25;;
74872;SDS011;68776;44.762;37.698;2023-07-20T01:08:24;370.67;;;113.50;;
74872;SDS011;68776;44.762;37.698;2023-07-20T01:09:41;367.02;;;111.70;;
74872;SDS011;68776;44.762;37.698;2023-07-20T01:11:12;378.17;;;114.63;;
74872;SDS011;68776;44.762;37.698;2023-07-20T01:13:17;365.10;;;110.40;;
74872;SDS011;68776;44.762;37.698;2023-07-20T01:14:19;371.77;;;112.55;;
74872;SDS011;68776;44.762;37.698;2023-07-20T01:15:20;372.50;;;112.38;;
74872;SDS011;68776;44.762;37.698;2023-07-20T01:16:21;368.10;;;112.15;;
74872;SDS011;68776;44.762;37.698;2023-07-20T01:17:22;359.08;;;109.70;;
74872;SDS011;68776;44.762;37.698;2023-07-20T01:18:24;365.17;;;111.30;;
74872;SDS011;68776;44.762;37.698;2023-07-20T01:19:25;348.15;;;108.53;;
74872;SDS011;68776;44.762;37.698;2023-07-20T01:20:26;348.52;;;109.40;;
74872;SDS011;68776;44.762;37.698;2023-07-20T01:23:21;374.10;;;111.38;;
74872;SDS011;68776;44.762;37.698;2023-07-20T01:31:28;411.90;;;119.23;;
74872;SDS011;68776;44.762;37.698;2023-07-20T01:32:32;404.35;;;117.45;;
74872;SDS011;68776;44.762;37.698;2023-07-20T01:33:35;394.45;;;117.70;;
74872;SDS011;68776;44.762;37.698;2023-07-20T01:34:36;388.20;;;114.82;;
74872;SDS011;68776;44.762;37.698;2023-07-20T01:35:39;389.08;;;113.57;;
74872;SDS011;68776;44.762;37.698;2023-07-20T01:36:44;394.17;;;115.13;;
74872;SDS011;68776;44.762;37.698;2023-07-20T01:37:47;393.40;;;116.65;;
74872;SDS011;68776;44.762;37.698;2023-07-20T01:38:49;388.23;;;115.05;;
74872;SDS011;68776;44.762;37.698;2023-07-20T01:39:51;386.90;;;115.38;;
74872;SDS011;68776;44.762;37.698;2023-07-20T01:40:56;382.42;;;113.50;;
74872;SDS011;68776;44.762;37.698;2023-07-20T01:41:58;382.00;;;114.80;;
74872;SDS011;68776;44.762;37.698;2023-07-20T01:43:00;379.58;;;113.45;;
74872;SDS011;68776;44.762;37.698;2023-07-20T01:44:03;376.98;;;114.00;;
74872;SDS011;68776;44.762;37.698;2023-07-20T01:45:05;376.40;;;112.95;;
74872;SDS011;68776;44.762;37.698;2023-07-20T01:46:07;383.30;;;113.20;;
74872;SDS011;68776;44.762;37.698;2023-07-20T01:47:08;378.42;;;113.10;;
74872;SDS011;68776;44.762;37.698;2023-07-20T01:48:09;375.50;;;112.75;;
74872;SDS011;68776;44.762;37.698;2023-07-20T01:49:10;377.65;;;112.63;;
74872;SDS011;68776;44.762;37.698;2023-07-20T01:50:11;374.98;;;113.50;;
74872;SDS011;68776;44.762;37.698;2023-07-20T01:51:12;374.80;;;113.40;;
74872;SDS011;68776;44.762;37.698;2023-07-20T01:52:13;365.95;;;111.03;;
74872;SDS011;68776;44.762;37.698;2023-07-20T01:53:15;366.70;;;112.97;;
74872;SDS011;68776;44.762;37.698;2023-07-20T01:54:16;362.33;;;110.63;;
74872;SDS011;68776;44.762;37.698;2023-07-20T01:55:18;363.13;;;110.15;;
74872;SDS011;68776;44.762;37.698;2023-07-20T01:56:19;359.02;;;109.28;;
74872;SDS011;68776;44.762;37.698;2023-07-20T01:57:20;352.08;;;109.05;;
74872;SDS011;68776;44.762;37.698;2023-07-20T01:58:21;345.45;;;108.07;;
74872;SDS011;68776;44.762;37.698;2023-07-20T01:59:22;355.73;;;109.57;;
74872;SDS011;68776;44.762;37.698;2023-07-20T02:00:24;362.30;;;111.07;;
74872;SDS011;68776;44.762;37.698;2023-07-20T02:01:25;362.60;;;111.57;;
74872;SDS011;68776;44.762;37.698;2023-07-20T02:02:28;364.77;;;111.70;;
74872;SDS011;68776;44.762;37.698;2023-07-20T02:03:29;362.00;;;109.63;;
74872;SDS011;68776;44.762;37.698;2023-07-20T02:04:30;364.75;;;109.90;;
74872;SDS011;68776;44.762;37.698;2023-07-20T02:05:32;362.10;;;109.30;;
74872;SDS011;68776;44.762;37.698;2023-07-20T02:06:33;359.17;;;109.88;;
74872;SDS011;68776;44.762;37.698;2023-07-20T02:07:34;360.15;;;110.47;;
74872;SDS011;68776;44.762;37.698;2023-07-20T02:08:35;356.23;;;109.47;;
74872;SDS011;68776;44.762;37.698;2023-07-20T02:09:36;359.53;;;111.57;;
74872;SDS011;68776;44.762;37.698;2023-07-20T02:10:37;351.80;;;109.82;;
74872;SDS011;68776;44.762;37.698;2023-07-20T02:11:39;348.60;;;106.18;;
74872;SDS011;68776;44.762;37.698;2023-07-20T02:12:40;354.75;;;108.13;;
74872;SDS011;68776;44.762;37.698;2023-07-20T02:13:41;358.95;;;109.80;;
74872;SDS011;68776;44.762;37.698;2023-07-20T02:14:42;362.98;;;110.88;;
74872;SDS011;68776;44.762;37.698;2023-07-20T02:15:43;361.88;;;111.35;;
74872;SDS011;68776;44.762;37.698;2023-07-20T02:16:44;365.93;;;111.47;;
74872;SDS011;68776;44.762;37.698;2023-07-20T02:17:45;354.85;;;109.63;;
74872;SDS011;68776;44.762;37.698;2023-07-20T02:18:46;351.77;;;108.00;;
74872;SDS011;68776;44.762;37.698;2023-07-20T02:19:50;353.02;;;108.00;;
74872;SDS011;68776;44.762;37.698;2023-07-20T02:20:53;350.48;;;108.18;;
74872;SDS011;68776;44.762;37.698;2023-07-20T02:21:54;350.85;;;107.95;;
74872;SDS011;68776;44.762;37.698;2023-07-20T02:22:55;351.80;;;109.28;;
74872;SDS011;68776;44.762;37.698;2023-07-20T02:23:56;356.50;;;109.60;;
74872;SDS011;68776;44.762;37.698;2023-07-20T02:24:57;361.03;;;111.40;;
74872;SDS011;68776;44.762;37.698;2023-07-20T02:25:58;362.20;;;110.50;;
74872;SDS011;68776;44.762;37.698;2023-07-20T02:26:59;184.65;;;74.07;;
74872;SDS011;68776;44.762;37.698;2023-07-20T02:28:00;287.38;;;96.75;;
74872;SDS011;68776;44.762;37.698;2023-07-20T02:29:01;149.10;;;65.07;;
74872;SDS011;68776;44.762;37.698;2023-07-20T02:30:05;274.65;;;94.57;;
74872;SDS011;68776;44.762;37.698;2023-07-20T02:31:07;314.55;;;100.85;;
74872;SDS011;68776;44.762;37.698;2023-07-20T02:32:09;323.08;;;103.03;;
74872;SDS011;68776;44.762;37.698;2023-07-20T02:33:13;337.40;;;104.93;;
74872;SDS011;68776;44.762;37.698;2023-07-20T02:34:14;339.05;;;105.88;;
74872;SDS011;68776;44.762;37.698;2023-07-20T02:49:30;513.42;;;141.05;;
74872;SDS011;68776;44.762;37.698;2023-07-20T02:52:32;513.40;;;141.93;;
74872;SDS011;68776;44.762;37.698;2023-07-20T02:53:33;478.55;;;134.68;;
74872;SDS011;68776;44.762;37.698;2023-07-20T02:54:34;453.88;;;128.40;;
74872;SDS011;68776;44.762;37.698;2023-07-20T02:55:35;439.73;;;124.18;;
74872;SDS011;68776;44.762;37.698;2023-07-20T02:56:36;240.35;;;86.45;;
74872;SDS011;68776;44.762;37.698;2023-07-20T02:57:37;164.10;;;68.75;;
74872;SDS011;68776;44.762;37.698;2023-07-20T02:58:40;297.17;;;97.28;;
74872;SDS011;68776;44.762;37.698;2023-07-20T02:59:46;335.88;;;104.30;;
74872;SDS011;68776;44.762;37.698;2023-07-20T03:00:47;346.80;;;106.57;;
74872;SDS011;68776;44.762;37.698;2023-07-20T03:01:48;365.85;;;110.18;;
74872;SDS011;68776;44.762;37.698;2023-07-20T03:02:49;369.20;;;111.20;;
74872;SDS011;68776;44.762;37.698;2023-07-20T03:03:56;191.10;;;74.68;;
74872;SDS011;68776;44.762;37.698;2023-07-20T03:04:57;132.10;;;61.27;;
74872;SDS011;68776;44.762;37.698;2023-07-20T03:06:01;104.78;;;55.40;;
74872;SDS011;68776;44.762;37.698;2023-07-20T03:07:04;251.10;;;86.75;;
74872;SDS011;68776;44.762;37.698;2023-07-20T03:08:06;299.65;;;98.18;;
74872;SDS011;68776;44.762;37.698;2023-07-20T03:09:07;315.48;;;103.03;;
74872;SDS011;68776;44.762;37.698;2023-07-20T03:10:09;329.52;;;104.65;;
74872;SDS011;68776;44.762;37.698;2023-07-20T03:11:11;336.93;;;107.77;;
74872;SDS011;68776;44.762;37.698;2023-07-20T03:12:13;338.00;;;105.55;;
74872;SDS011;68776;44.762;37.698;2023-07-20T03:13:14;340.25;;;107.00;;
74872;SDS011;68776;44.762;37.698;2023-07-20T03:14:16;345.50;;;108.00;;
74872;SDS011;68776;44.762;37.698;2023-07-20T03:15:17;343.25;;;104.55;;
74872;SDS011;68776;44.762;37.698;2023-07-20T03:17:20;390.48;;;113.97;;
74872;SDS011;68776;44.762;37.698;2023-07-20T03:21:23;437.63;;;123.03;;
74872;SDS011;68776;44.762;37.698;2023-07-20T03:22:24;403.05;;;117.63;;
74872;SDS011;68776;44.762;37.698;2023-07-20T03:23:25;378.88;;;113.50;;
74872;SDS011;68776;44.762;37.698;2023-07-20T03:24:26;371.03;;;111.83;;
74872;SDS011;68776;44.762;37.698;2023-07-20T03:25:28;362.35;;;111.15;;
74872;SDS011;68776;44.762;37.698;2023-07-20T03:28:32;426.70;;;123.10;;
74872;SDS011;68776;44.762;37.698;2023-07-20T03:29:33;220.57;;;81.95;;
74872;SDS011;68776;44.762;37.698;2023-07-20T03:30:35;140.80;;;63.58;;
74872;SDS011;68776;44.762;37.698;2023-07-20T03:31:36;270.38;;;91.68;;
74872;SDS011;68776;44.762;37.698;2023-07-20T03:32:38;132.60;;;62.00;;
74872;SDS011;68776;44.762;37.698;2023-07-20T03:37:46;408.13;;;119.40;;
74872;SDS011;68776;44.762;37.698;2023-07-20T03:38:47;381.67;;;114.40;;
74872;SDS011;68776;44.762;37.698;2023-07-20T03:39:48;363.98;;;110.28;;
74872;SDS011;68776;44.762;37.698;2023-07-20T03:40:50;354.50;;;111.43;;
74872;SDS011;68776;44.762;37.698;2023-07-20T03:41:52;354.88;;;109.97;;
74872;SDS011;68776;44.762;37.698;2023-07-20T03:42:54;353.40;;;108.80;;
74872;SDS011;68776;44.762;37.698;2023-07-20T03:43:55;350.60;;;107.57;;
74872;SDS011;68776;44.762;37.698;2023-07-20T03:52:02;455.55;;;127.28;;
74872;SDS011;68776;44.762;37.698;2023-07-20T03:53:03;229.57;;;83.63;;
74872;SDS011;68776;44.762;37.698;2023-07-20T03:54:04;138.10;;;62.17;;
74872;SDS011;68776;44.762;37.698;2023-07-20T03:55:05;264.48;;;90.50;;
74872;SDS011;68776;44.762;37.698;2023-07-20T04:18:38;451.03;;;126.30;;
74872;SDS011;68776;44.762;37.698;2023-07-20T04:19:39;221.27;;;81.85;;
74872;SDS011;68776;44.762;37.698;2023-07-20T04:20:40;128.40;;;60.28;;
74872;SDS011;68776;44.762;37.698;2023-07-20T04:21:42;245.18;;;86.75;;
74872;SDS011;68776;44.762;37.698;2023-07-20T04:22:43;269.58;;;92.93;;
74872;SDS011;68776;44.762;37.698;2023-07-20T04:23:47;277.38;;;94.53;;
74872;SDS011;68776;44.762;37.698;2023-07-20T04:24:48;279.50;;;95.17;;
74872;SDS011;68776;44.762;37.698;2023-07-20T04:25:49;285.35;;;95.60;;
74872;SDS011;68776;44.762;37.698;2023-07-20T04:26:51;281.90;;;96.03;;
74872;SDS011;68776;44.762;37.698;2023-07-20T04:31:19;356.33;;;110.97;;
74872;SDS011;68776;44.762;37.698;2023-07-20T05:07:41;377.43;;;110.30;;
74872;SDS011;68776;44.762;37.698;2023-07-20T05:08:42;159.18;;;66.53;;
74872;SDS011;68776;44.762;37.698;2023-07-20T05:09:44;73.05;;;47.35;;
74872;SDS011;68776;44.762;37.698;2023-07-20T05:10:45;40.47;;;35.58;;
74872;SDS011;68776;44.762;37.698;2023-07-20T05:11:48;170.45;;;69.55;;
74872;SDS011;68776;44.762;37.698;2023-07-20T05:12:49;192.75;;;74.53;;
74872;SDS011;68776;44.762;37.698;2023-07-20T05:13:50;193.30;;;76.60;;
74872;SDS011;68776;44.762;37.698;2023-07-20T05:14:51;200.27;;;78.40;;
74872;SDS011;68776;44.762;37.698;2023-07-20T05:15:52;196.65;;;77.80;;
74872;SDS011;68776;44.762;37.698;2023-07-20T05:16:54;202.75;;;79.32;;
74872;SDS011;68776;44.762;37.698;2023-07-20T05:17:55;202.35;;;79.38;;
74872;SDS011;68776;44.762;37.698;2023-07-20T05:18:58;204.88;;;76.78;;
74872;SDS011;68776;44.762;37.698;2023-07-20T05:19:59;205.82;;;77.78;;
74872;SDS011;68776;44.762;37.698;2023-07-20T05:21:00;206.20;;;78.00;;
74872;SDS011;68776;44.762;37.698;2023-07-20T05:22:01;201.98;;;77.50;;
74872;SDS011;68776;44.762;37.698;2023-07-20T05:23:02;200.80;;;77.65;;
74872;SDS011;68776;44.762;37.698;2023-07-20T05:24:03;208.27;;;76.30;;
74872;SDS011;68776;44.762;37.698;2023-07-20T05:32:14;275.20;;;95.53;;
74872;SDS011;68776;44.762;37.698;2023-07-20T05:37:19;272.73;;;95.38;;
74872;SDS011;68776;44.762;37.698;2023-07-20T05:38:20;83.72;;;49.42;;
74872;SDS011;68776;44.762;37.698;2023-07-20T05:39:22;35.53;;;32.15;;
74872;SDS011;68776;44.762;37.698;2023-07-20T05:40:23;23.63;;;21.83;;
74872;SDS011;68776;44.762;37.698;2023-07-20T05:41:24;16.63;;;15.23;;
74872;SDS011;68776;44.762;37.698;2023-07-20T05:42:25;12.75;;;11.65;;
74872;SDS011;68776;44.762;37.698;2023-07-20T05:43:26;10.32;;;9.32;;
74872;SDS011;68776;44.762;37.698;2023-07-20T05:44:27;9.90;;;8.93;;
74872;SDS011;68776;44.762;37.698;2023-07-20T05:45:28;99.93;;;49.53;;
74872;SDS011;68776;44.762;37.698;2023-07-20T05:46:29;124.05;;;57.97;;
74872;SDS011;68776;44.762;37.698;2023-07-20T05:47:30;133.27;;;62.37;;
74872;SDS011;68776;44.762;37.698;2023-07-20T05:48:30;129.95;;;62.28;;
74872;SDS011;68776;44.762;37.698;2023-07-20T05:49:32;135.43;;;59.05;;
74872;SDS011;68776;44.762;37.698;2023-07-20T05:50:33;30.73;;;28.05;;
74872;SDS011;68776;44.762;37.698;2023-07-20T05:51:34;14.85;;;13.65;;
74872;SDS011;68776;44.762;37.698;2023-07-20T05:54:38;147.83;;;64.53;;
74872;SDS011;68776;44.762;37.698;2023-07-20T05:55:39;145.57;;;65.25;;
74872;SDS011;68776;44.762;37.698;2023-07-20T05:56:40;139.75;;;63.70;;
74872;SDS011;68776;44.762;37.698;2023-07-20T05:57:41;137.15;;;61.25;;
74872;SDS011;68776;44.762;37.698;2023-07-20T05:58:43;142.18;;;61.40;;
74872;SDS011;68776;44.762;37.698;2023-07-20T05:59:45;147.00;;;62.38;;
74872;SDS011;68776;44.762;37.698;2023-07-20T06:00:49;146.60;;;62.90;;
74872;SDS011;68776;44.762;37.698;2023-07-20T06:01:51;153.23;;;66.10;;
74872;SDS011;68776;44.762;37.698;2023-07-20T06:02:52;137.07;;;61.13;;
74872;SDS011;68776;44.762;37.698;2023-07-20T06:03:55;138.55;;;62.05;;
74872;SDS011;68776;44.762;37.698;2023-07-20T06:04:56;143.13;;;63.13;;
74872;SDS011;68776;44.762;37.698;2023-07-20T06:06:00;136.73;;;62.35;;
74872;SDS011;68776;44.762;37.698;2023-07-20T06:48:03;205.88;;;79.40;;
74872;SDS011;68776;44.762;37.698;2023-07-20T06:49:06;39.10;;;35.00;;
74872;SDS011;68776;44.762;37.698;2023-07-20T06:50:08;15.00;;;13.87;;
74872;SDS011;68776;44.762;37.698;2023-07-20T06:51:10;7.63;;;5.45;;
74872;SDS011;68776;44.762;37.698;2023-07-20T06:52:11;5.67;;;2.50;;
74872;SDS011;68776;44.762;37.698;2023-07-20T06:53:12;6.70;;;2.25;;
74872;SDS011;68776;44.762;37.698;2023-07-20T06:54:13;5.75;;;2.20;;
74872;SDS011;68776;44.762;37.698;2023-07-20T06:55:14;7.75;;;2.35;;
74872;SDS011;68776;44.762;37.698;2023-07-20T06:56:15;4.45;;;2.03;;
74872;SDS011;68776;44.762;37.698;2023-07-20T06:57:16;64.40;;;27.05;;
74872;SDS011;68776;44.762;37.698;2023-07-20T06:58:18;83.20;;;36.67;;
74872;SDS011;68776;44.762;37.698;2023-07-20T06:59:19;85.35;;;39.20;;
74872;SDS011;68776;44.762;37.698;2023-07-20T07:00:21;91.50;;;44.50;;
74872;SDS011;68776;44.762;37.698;2023-07-20T07:01:22;89.88;;;45.05;;
74872;SDS011;68776;44.762;37.698;2023-07-20T09:07:53;113.22;;;54.83;;
74872;SDS011;68776;44.762;37.698;2023-07-20T09:08:54;7.00;;;6.30;;
74872;SDS011;68776;44.762;37.698;2023-07-20T09:09:57;5.47;;;1.90;;
74872;SDS011;68776;44.762;37.698;2023-07-20T09:10:58;4.20;;;1.40;;
74872;SDS011;68776;44.762;37.698;2023-07-20T11:05:51;86.38;;;38.25;;
74872;SDS011;68776;44.762;37.698;2023-07-20T11:06:55;4.60;;;1.98;;
74872;SDS011;68776;44.762;37.698;2023-07-20T11:07:56;4.90;;;2.28;;
74872;SDS011;68776;44.762;37.698;2023-07-20T11:10:14;5.70;;;2.40;;
74872;SDS011;68776;44.762;37.698;2023-07-20T11:11:26;9.00;;;2.60;;
74872;SDS011;68776;44.762;37.698;2023-07-20T11:12:29;6.05;;;2.30;;
74872;SDS011;68776;44.762;37.698;2023-07-20T11:13:30;5.68;;;2.30;;
74872;SDS011;68776;44.762;37.698;2023-07-20T11:14:32;5.15;;;2.15;;
74872;SDS011;68776;44.762;37.698;2023-07-20T11:16:54;8.33;;;2.37;;
74872;SDS011;68776;44.762;37.698;2023-07-20T11:18:10;6.43;;;2.60;;
74872;SDS011;68776;44.762;37.698;2023-07-20T11:19:22;5.90;;;2.22;;
74872;SDS011;68776;44.762;37.698;2023-07-20T11:20:25;9.07;;;2.38;;
74872;SDS011;68776;44.762;37.698;2023-07-20T11:21:27;4.87;;;1.93;;
74872;SDS011;68776;44.762;37.698;2023-07-20T11:22:30;6.10;;;2.07;;
74872;SDS011;68776;44.762;37.698;2023-07-20T11:23:32;12.05;;;2.92;;
74872;SDS011;68776;44.762;37.698;2023-07-20T11:24:34;10.82;;;2.90;;
74872;SDS011;68776;44.762;37.698;2023-07-20T11:25:41;8.15;;;2.33;;
74872;SDS011;68776;44.762;37.698;2023-07-20T11:26:43;5.57;;;2.55;;
74872;SDS011;68776;44.762;37.698;2023-07-20T11:27:48;5.97;;;2.40;;
74872;SDS011;68776;44.762;37.698;2023-07-20T11:28:50;5.05;;;2.13;;
74872;SDS011;68776;44.762;37.698;2023-07-20T11:29:54;7.18;;;2.53;;
74872;SDS011;68776;44.762;37.698;2023-07-20T11:30:55;6.05;;;2.13;;
74872;SDS011;68776;44.762;37.698;2023-07-20T11:31:56;7.80;;;2.70;;
74872;SDS011;68776;44.762;37.698;2023-07-20T11:32:59;10.57;;;2.50;;
74872;SDS011;68776;44.762;37.698;2023-07-20T11:33:59;5.27;;;2.53;;
74872;SDS011;68776;44.762;37.698;2023-07-20T11:35:00;9.23;;;2.85;;
74872;SDS011;68776;44.762;37.698;2023-07-20T11:36:02;64.50;;;16.17;;
74872;SDS011;68776;44.762;37.698;2023-07-20T11:37:03;64.45;;;17.45;;
74872;SDS011;68776;44.762;37.698;2023-07-20T11:38:06;63.15;;;17.30;;
74872;SDS011;68776;44.762;37.698;2023-07-20T11:39:08;64.78;;;18.45;;
74872;SDS011;68776;44.762;37.698;2023-07-20T11:40:16;62.23;;;18.60;;
74872;SDS011;68776;44.762;37.698;2023-07-20T11:41:17;61.75;;;19.08;;
74872;SDS011;68776;44.762;37.698;2023-07-20T11:42:19;59.45;;;18.77;;
74872;SDS011;68776;44.762;37.698;2023-07-20T11:43:20;63.60;;;17.55;;
74872;SDS011;68776;44.762;37.698;2023-07-20T11:44:25;64.53;;;16.17;;
74872;SDS011;68776;44.762;37.698;2023-07-20T11:45:27;67.70;;;16.52;;
74872;SDS011;68776;44.762;37.698;2023-07-20T11:46:33;65.40;;;17.05;;
74872;SDS011;68776;44.762;37.698;2023-07-20T11:47:39;62.42;;;16.83;;
74872;SDS011;68776;44.762;37.698;2023-07-20T11:48:42;62.95;;;18.15;;
74872;SDS011;68776;44.762;37.698;2023-07-20T11:49:43;61.38;;;17.55;;
74872;SDS011;68776;44.762;37.698;2023-07-20T11:50:49;8.02;;;2.38;;
74872;SDS011;68776;44.762;37.698;2023-07-20T11:51:50;9.60;;;2.50;;
74872;SDS011;68776;44.762;37.698;2023-07-20T11:52:51;6.82;;;2.25;;
74872;SDS011;68776;44.762;37.698;2023-07-20T11:53:52;7.45;;;2.05;;
74872;SDS011;68776;44.762;37.698;2023-07-20T11:54:53;6.40;;;2.10;;
74872;SDS011;68776;44.762;37.698;2023-07-20T11:55:56;4.63;;;2.03;;
74872;SDS011;68776;44.762;37.698;2023-07-20T11:57:00;14.40;;;2.33;;
74872;SDS011;68776;44.762;37.698;2023-07-20T11:58:02;6.13;;;2.30;;
74872;SDS011;68776;44.762;37.698;2023-07-20T11:59:04;6.18;;;2.30;;
74872;SDS011;68776;44.762;37.698;2023-07-20T12:00:07;7.90;;;2.20;;
74872;SDS011;68776;44.762;37.698;2023-07-20T12:01:12;6.28;;;2.53;;
74872;SDS011;68776;44.762;37.698;2023-07-20T12:02:14;9.00;;;2.20;;
74872;SDS011;68776;44.762;37.698;2023-07-20T12:03:15;6.85;;;2.17;;
74872;SDS011;68776;44.762;37.698;2023-07-20T12:04:16;5.43;;;1.90;;
74872;SDS011;68776;44.762;37.698;2023-07-20T12:05:17;5.07;;;1.85;;
74872;SDS011;68776;44.762;37.698;2023-07-20T12:06:18;7.95;;;2.00;;
74872;SDS011;68776;44.762;37.698;2023-07-20T12:07:23;7.35;;;2.20;;
74872;SDS011;68776;44.762;37.698;2023-07-20T12:08:26;5.15;;;1.70;;
74872;SDS011;68776;44.762;37.698;2023-07-20T12:09:27;4.70;;;1.90;;
74872;SDS011;68776;44.762;37.698;2023-07-20T12:10:28;5.28;;;1.80;;
74872;SDS011;68776;44.762;37.698;2023-07-20T12:11:32;7.13;;;2.10;;
74872;SDS011;68776;44.762;37.698;2023-07-20T12:12:38;5.82;;;2.15;;
74872;SDS011;68776;44.762;37.698;2023-07-20T12:13:43;7.65;;;2.33;;
74872;SDS011;68776;44.762;37.698;2023-07-20T12:14:45;13.73;;;2.85;;
74872;SDS011;68776;44.762;37.698;2023-07-20T12:15:46;7.38;;;1.98;;
74872;SDS011;68776;44.762;37.698;2023-07-20T12:16:51;8.85;;;1.88;;
74872;SDS011;68776;44.762;37.698;2023-07-20T12:17:55;7.22;;;1.98;;
74872;SDS011;68776;44.762;37.698;2023-07-20T12:19:01;5.03;;;1.90;;
74872;SDS011;68776;44.762;37.698;2023-07-20T12:20:02;5.40;;;2.00;;
74872;SDS011;68776;44.762;37.698;2023-07-20T12:21:05;5.20;;;2.25;;
74872;SDS011;68776;44.762;37.698;2023-07-20T12:22:07;5.28;;;1.90;;
74872;SDS011;68776;44.762;37.698;2023-07-20T12:23:09;6.47;;;1.90;;
74872;SDS011;68776;44.762;37.698;2023-07-20T12:24:11;8.65;;;2.40;;
74872;SDS011;68776;44.762;37.698;2023-07-20T12:25:12;6.30;;;2.17;;
74872;SDS011;68776;44.762;37.698;2023-07-20T12:26:13;6.32;;;2.40;;
74872;SDS011;68776;44.762;37.698;2023-07-20T12:27:15;5.20;;;2.10;;
74872;SDS011;68776;44.762;37.698;2023-07-20T12:28:18;7.18;;;2.53;;
74872;SDS011;68776;44.762;37.698;2023-07-20T12:29:20;7.88;;;2.53;;
74872;SDS011;68776;44.762;37.698;2023-07-20T12:30:21;7.47;;;2.40;;
74872;SDS011;68776;44.762;37.698;2023-07-20T12:31:22;5.40;;;2.10;;
74872;SDS011;68776;44.762;37.698;2023-07-20T12:32:24;5.32;;;2.00;;
74872;SDS011;68776;44.762;37.698;2023-07-20T12:33:25;4.72;;;1.95;;
74872;SDS011;68776;44.762;37.698;2023-07-20T12:34:26;5.50;;;1.58;;
74872;SDS011;68776;44.762;37.698;2023-07-20T12:35:27;5.45;;;2.05;;
74872;SDS011;68776;44.762;37.698;2023-07-20T12:36:28;6.28;;;1.92;;
74872;SDS011;68776;44.762;37.698;2023-07-20T12:37:29;7.13;;;2.00;;
74872;SDS011;68776;44.762;37.698;2023-07-20T12:38:30;9.18;;;2.00;;
74872;SDS011;68776;44.762;37.698;2023-07-20T12:39:31;4.85;;;1.90;;